createdAt,value
2023-01-19T00:04:30.789Z,2.25
2023-01-19T00:09:32.465Z,2.22
2023-01-19T00:14:30.909Z,2.19
2023-01-19T00:17:11.592Z,2.21
2023-01-19T00:19:30.736Z,2.21
2023-01-19T00:24:31.331Z,2.25
2023-01-19T00:29:33.459Z,2.28
2023-01-19T00:34:35.959Z,2.28
2023-01-19T00:39:31.002Z,2.35
2023-01-19T00:42:23.347Z,2.37
2023-01-19T00:44:30.702Z,2.37
2023-01-19T00:44:52.249Z,2.37
2023-01-19T00:47:03.852Z,2.38
2023-01-19T00:48:48.005Z,2.38
2023-01-19T00:49:30.874Z,2.38
2023-01-19T00:54:31.075Z,2.41
2023-01-19T00:54:40.665Z,2.41
2023-01-19T00:55:39.397Z,2.41
2023-01-19T00:56:57.346Z,2.41
2023-01-19T00:59:30.718Z,2.49
2023-01-19T01:03:15.588Z,2.58
2023-01-19T01:04:30.858Z,2.58
2023-01-19T01:06:52.337Z,2.58
2023-01-19T01:09:31.006Z,2.55
2023-01-19T01:10:31.309Z,2.55
2023-01-19T01:13:45.243Z,2.64
2023-01-19T01:14:30.683Z,2.64
2023-01-19T01:19:30.868Z,2.67
2023-01-19T01:22:13.125Z,2.71
2023-01-19T01:24:17.777Z,2.71
2023-01-19T01:24:30.957Z,2.71
2023-01-19T01:25:36.418Z,2.71
2023-01-19T01:29:30.689Z,2.56
2023-01-19T01:34:31.121Z,2.60
2023-01-19T01:38:30.329Z,2.63
2023-01-19T01:39:30.680Z,2.63
2023-01-19T01:44:48.695Z,2.62
2023-01-19T01:49:31.001Z,2.51
2023-01-19T01:53:07.354Z,2.47
2023-01-19T01:54:32.484Z,2.47
2023-01-19T01:59:38.077Z,2.44
2023-01-19T02:01:16.526Z,2.44
2023-01-19T02:04:31.279Z,2.46
2023-01-19T02:09:44.805Z,2.51
2023-01-19T02:10:01.001Z,2.51
2023-01-19T02:12:17.325Z,2.57
2023-01-19T02:14:30.791Z,2.57
2023-01-19T02:18:40.942Z,2.50
2023-01-19T02:19:38.094Z,2.50
2023-01-19T02:21:54.275Z,2.50
2023-01-19T02:24:31.604Z,2.52
2023-01-19T02:27:10.077Z,2.50
2023-01-19T02:29:32.009Z,2.50
2023-01-19T02:29:58.023Z,2.50
2023-01-19T02:31:15.041Z,2.50
2023-01-19T02:34:31.544Z,2.48
2023-01-19T02:39:35.625Z,2.53
2023-01-19T02:44:32.134Z,2.58
2023-01-19T02:49:31.059Z,2.53
2023-01-19T02:52:24.757Z,2.55
2023-01-19T02:54:39.572Z,2.55
2023-01-19T02:54:57.173Z,2.55
2023-01-19T02:59:43.038Z,2.42
2023-01-19T03:03:57.280Z,2.51
2023-01-19T03:04:43.485Z,2.51
2023-01-19T03:09:40.555Z,2.55
2023-01-19T03:14:35.665Z,2.53
2023-01-19T03:15:16.178Z,2.53
2023-01-19T03:19:35.526Z,2.61
2023-01-19T03:19:40.857Z,2.61
2023-01-19T03:24:37.016Z,2.66
2023-01-19T03:29:33.858Z,2.59
2023-01-19T03:34:31.684Z,2.53
2023-01-19T03:39:31.080Z,2.40
2023-01-19T03:44:33.995Z,2.34
2023-01-19T03:46:43.438Z,2.34
2023-01-19T03:49:31.998Z,2.26
2023-01-19T03:54:30.994Z,2.24
2023-01-19T03:55:05.726Z,2.24
2023-01-19T03:59:16.485Z,2.29
2023-01-19T03:59:30.552Z,2.29
2023-01-19T04:04:30.688Z,2.23
2023-01-19T04:09:30.952Z,2.33
2023-01-19T04:10:34.850Z,2.33
2023-01-19T04:13:43.839Z,2.25
2023-01-19T04:14:30.529Z,2.25
2023-01-19T04:19:06.887Z,2.27
2023-01-19T04:19:30.553Z,2.27
2023-01-19T04:24:30.857Z,2.21
2023-01-19T04:24:46.228Z,2.21
2023-01-19T04:29:30.610Z,2.22
2023-01-19T04:34:30.579Z,2.21
2023-01-19T04:38:16.209Z,2.13
2023-01-19T04:39:30.591Z,2.13
2023-01-19T04:44:30.646Z,2.17
2023-01-19T04:49:31.134Z,2.19
2023-01-19T04:53:37.106Z,2.21
2023-01-19T04:54:31.365Z,2.21
2023-01-19T04:57:45.878Z,2.20
2023-01-19T04:59:30.568Z,2.20
2023-01-19T05:04:30.720Z,2.20
2023-01-19T05:09:30.560Z,2.07
2023-01-19T05:10:44.946Z,2.07
2023-01-19T05:12:55.424Z,2.15
2023-01-19T05:14:30.599Z,2.15
2023-01-19T05:15:57.438Z,2.15
2023-01-19T05:19:30.798Z,2.15
2023-01-19T05:22:20.308Z,2.14
2023-01-19T05:24:30.900Z,2.14
2023-01-19T05:26:17.313Z,2.14
2023-01-19T05:29:30.670Z,2.18
2023-01-19T05:30:14.721Z,2.18
2023-01-19T05:34:30.620Z,2.20
2023-01-19T05:34:52.182Z,2.20
2023-01-19T05:39:30.603Z,2.12
2023-01-19T05:44:30.672Z,2.14
2023-01-19T05:49:30.599Z,2.10
2023-01-19T05:51:25.428Z,2.10
2023-01-19T05:54:30.476Z,2.21
2023-01-19T05:59:30.716Z,2.14
2023-01-19T06:01:42.972Z,2.14
2023-01-19T06:02:40.550Z,2.20
2023-01-19T06:04:30.857Z,2.20
2023-01-19T06:08:34.608Z,2.22
2023-01-19T06:09:30.511Z,2.22
2023-01-19T06:14:31.501Z,2.14
2023-01-19T06:19:30.483Z,2.21
2023-01-19T06:21:51.671Z,2.21
2023-01-19T06:24:30.505Z,2.19
2023-01-19T06:29:30.829Z,2.20
2023-01-19T06:32:46.511Z,2.28
2023-01-19T06:34:30.426Z,2.28
2023-01-19T06:38:56.810Z,2.37
2023-01-19T06:39:30.455Z,2.37
2023-01-19T06:44:30.604Z,2.36
2023-01-19T06:49:30.511Z,2.37
2023-01-19T06:52:49.071Z,2.43
2023-01-19T06:54:30.466Z,2.43
2023-01-19T06:55:02.459Z,2.43
2023-01-19T06:59:30.873Z,2.44
2023-01-19T07:04:30.467Z,2.53
2023-01-19T07:07:16.321Z,2.55
2023-01-19T07:09:30.459Z,2.55
2023-01-19T07:12:11.505Z,2.54
2023-01-19T07:14:33.022Z,2.54
2023-01-19T07:19:30.834Z,2.53
2023-01-19T07:24:32.634Z,2.41
2023-01-19T07:28:40.700Z,2.38
2023-01-19T07:29:30.519Z,2.38
2023-01-19T07:34:30.803Z,2.49
2023-01-19T07:39:31.089Z,2.48
2023-01-19T07:44:30.590Z,2.56
2023-01-19T07:45:10.203Z,2.56
2023-01-19T07:46:42.791Z,2.56
2023-01-19T07:49:30.468Z,2.54
2023-01-19T07:54:30.461Z,2.57
2023-01-19T07:58:59.310Z,2.55
2023-01-19T07:59:31.371Z,2.55
2023-01-19T08:00:37.467Z,2.55
2023-01-19T08:04:30.473Z,2.65
2023-01-19T08:09:30.860Z,2.72
2023-01-19T08:14:30.393Z,2.73
2023-01-19T08:15:29.561Z,2.73
2023-01-19T08:19:30.392Z,2.78
2023-01-19T08:24:31.510Z,2.84
2023-01-19T08:28:54.582Z,2.90
2023-01-19T08:29:30.937Z,2.90
2023-01-19T08:33:13.862Z,2.93
2023-01-19T08:34:30.533Z,2.93
2023-01-19T08:38:16.174Z,2.89
2023-01-19T08:39:30.373Z,2.89
2023-01-19T08:44:30.468Z,2.86
2023-01-19T08:44:43.769Z,2.86
2023-01-19T08:49:30.630Z,2.84
2023-01-19T08:53:55.501Z,2.81
2023-01-19T08:54:30.328Z,2.81
2023-01-19T08:59:30.414Z,2.77
2023-01-19T09:01:31.892Z,2.77
2023-01-19T09:03:40.396Z,2.74
2023-01-19T09:04:33.611Z,2.74
2023-01-19T09:05:51.447Z,2.74
2023-01-19T09:09:30.382Z,2.73
2023-01-19T09:11:33.971Z,2.73
2023-01-19T09:14:30.317Z,2.74
2023-01-19T09:16:28.319Z,2.74
2023-01-19T09:18:26.823Z,2.74
2023-01-19T09:19:30.287Z,2.74
2023-01-19T09:20:57.531Z,2.74
2023-01-19T09:24:30.685Z,2.64
2023-01-19T09:29:30.546Z,2.63
2023-01-19T09:34:30.446Z,2.66
2023-01-19T09:39:30.827Z,2.66
2023-01-19T09:44:34.540Z,2.69
2023-01-19T09:49:12.707Z,2.63
2023-01-19T09:49:36.098Z,2.63
2023-01-19T09:54:40.050Z,2.57
2023-01-19T09:59:32.540Z,2.58
2023-01-19T09:59:36.022Z,2.58
2023-01-19T10:04:35.481Z,2.60
2023-01-19T10:09:36.080Z,2.68
2023-01-19T10:14:37.664Z,2.70
2023-01-19T10:19:36.839Z,2.71
2023-01-19T10:22:49.554Z,2.63
2023-01-19T10:24:37.492Z,2.63
2023-01-19T10:26:22.015Z,2.63
2023-01-19T10:29:07.161Z,2.71
2023-01-19T10:29:35.280Z,2.71
2023-01-19T10:31:08.826Z,2.71
2023-01-19T10:32:07.571Z,2.75
2023-01-19T10:34:30.439Z,2.75
2023-01-19T10:39:30.452Z,2.78
2023-01-19T10:40:47.248Z,2.78
2023-01-19T10:44:36.282Z,2.76
2023-01-19T10:49:38.713Z,2.73
2023-01-19T10:50:44.729Z,2.73
2023-01-19T10:52:08.034Z,2.68
2023-01-19T10:54:00.980Z,2.68
2023-01-19T10:54:32.225Z,2.68
2023-01-19T10:59:34.206Z,2.80
2023-01-19T11:03:31.291Z,2.88
2023-01-19T11:04:30.281Z,2.88
2023-01-19T11:05:24.945Z,2.88
2023-01-19T11:09:30.209Z,2.90
2023-01-19T11:14:30.948Z,2.97
2023-01-19T11:19:32.415Z,3.03
2023-01-19T11:24:30.844Z,3.09
2023-01-19T11:25:35.164Z,3.09
2023-01-19T11:29:30.981Z,3.10
2023-01-19T11:34:32.135Z,3.10
2023-01-19T11:35:39.101Z,3.10
2023-01-19T11:39:41.821Z,3.11
2023-01-19T11:39:46.469Z,3.11
2023-01-19T11:39:49.083Z,3.11
2023-01-19T11:43:48.570Z,3.27
2023-01-19T11:44:33.020Z,3.27
2023-01-19T11:45:53.864Z,3.27
2023-01-19T11:49:37.977Z,3.35
2023-01-19T11:54:38.718Z,3.39
2023-01-19T11:59:30.717Z,3.36
2023-01-19T12:04:35.470Z,3.45
2023-01-19T12:08:14.737Z,3.53
2023-01-19T12:09:35.666Z,3.53
2023-01-19T12:14:37.146Z,3.54
2023-01-19T12:14:45.853Z,3.54
2023-01-19T12:14:53.823Z,3.54
2023-01-19T12:19:40.470Z,3.45
2023-01-19T12:24:39.466Z,3.36
2023-01-19T12:29:33.763Z,3.30
2023-01-19T12:34:40.243Z,3.26
2023-01-19T12:39:31.880Z,3.31
2023-01-19T12:44:33.149Z,3.29
2023-01-19T12:49:33.299Z,3.26
2023-01-19T12:54:31.659Z,3.26
2023-01-19T12:55:20.966Z,3.26
2023-01-19T12:59:32.772Z,3.23
2023-01-19T13:04:32.679Z,3.17
2023-01-19T13:09:32.117Z,3.14
2023-01-19T13:14:35.222Z,3.10
2023-01-19T13:19:40.878Z,3.14
2023-01-19T13:24:50.004Z,3.14
2023-01-19T13:29:33.848Z,3.15
2023-01-19T13:34:38.756Z,3.07
2023-01-19T13:39:35.912Z,3.08
2023-01-19T13:44:35.245Z,3.03
2023-01-19T13:49:33.682Z,3.04
2023-01-19T13:49:42.702Z,3.04
2023-01-19T13:54:30.538Z,3.00
2023-01-19T13:59:31.267Z,2.97
2023-01-19T14:04:32.665Z,3.06
2023-01-19T14:09:30.164Z,3.14
2023-01-19T14:10:03.777Z,3.14
2023-01-19T14:13:55.664Z,3.18
2023-01-19T14:14:30.528Z,3.18
2023-01-19T14:19:47.632Z,3.07
2023-01-19T14:24:32.090Z,3.05
2023-01-19T14:29:33.124Z,3.01
2023-01-19T14:33:30.311Z,2.94
2023-01-19T14:34:32.124Z,2.94
2023-01-19T14:38:45.163Z,2.91
2023-01-19T14:39:33.338Z,2.91
2023-01-19T14:44:33.125Z,2.92
2023-01-19T14:49:33.780Z,2.91
2023-01-19T14:53:37.343Z,2.88
2023-01-19T14:54:34.812Z,2.88
2023-01-19T14:59:30.718Z,2.81
2023-01-19T15:03:15.235Z,2.84
2023-01-19T15:04:30.171Z,2.84
2023-01-19T15:09:30.315Z,2.86
2023-01-19T15:14:30.343Z,2.83
2023-01-19T15:19:30.152Z,2.81
2023-01-19T15:24:30.001Z,2.80
2023-01-19T15:29:32.240Z,2.79
2023-01-19T15:32:31.047Z,2.76
2023-01-19T15:34:30.007Z,2.76
2023-01-19T15:36:01.373Z,2.76
2023-01-19T15:39:30.008Z,2.80
2023-01-19T15:41:56.913Z,2.80
2023-01-19T15:43:14.620Z,2.83
2023-01-19T15:44:31.713Z,2.83
2023-01-19T15:49:30.432Z,2.89
2023-01-19T15:54:30.108Z,2.83
2023-01-19T15:56:22.495Z,2.83
2023-01-19T15:59:30.001Z,2.77
2023-01-19T15:59:38.958Z,2.77
2023-01-19T16:04:24.104Z,2.76
2023-01-19T16:04:29.892Z,2.76
2023-01-19T16:09:30.315Z,2.73
2023-01-19T16:14:30.055Z,2.78
2023-01-19T16:17:01.676Z,2.74
2023-01-19T16:19:30.093Z,2.74
2023-01-19T16:24:30.409Z,2.73
2023-01-19T16:29:30.350Z,2.71
2023-01-19T16:33:52.104Z,2.68
2023-01-19T16:34:30.157Z,2.68
2023-01-19T16:39:30.385Z,2.73
2023-01-19T16:44:30.120Z,2.68
2023-01-19T16:49:30.076Z,2.78
2023-01-19T16:54:31.286Z,2.65
2023-01-19T16:59:29.964Z,2.70
2023-01-19T17:04:30.014Z,2.66
2023-01-19T17:09:30.442Z,2.59
2023-01-19T17:14:30.163Z,2.54
2023-01-19T17:17:11.035Z,2.51
2023-01-19T17:19:29.936Z,2.51
2023-01-19T17:24:30.033Z,2.50
2023-01-19T17:25:37.361Z,2.50
2023-01-19T17:29:29.902Z,2.54
2023-01-19T17:34:31.482Z,2.50
2023-01-19T17:39:30.052Z,2.50
2023-01-19T17:44:30.048Z,2.49
2023-01-19T17:49:30.316Z,2.66
2023-01-19T17:54:29.928Z,2.57
2023-01-19T17:59:31.665Z,2.45
2023-01-19T18:04:32.131Z,2.42
2023-01-19T18:09:30.021Z,2.37
2023-01-19T18:14:30.114Z,2.38
2023-01-19T18:19:30.545Z,2.34
2023-01-19T18:21:13.590Z,2.34
2023-01-19T18:21:40.593Z,2.34
2023-01-19T18:24:30.048Z,2.37
2023-01-19T18:25:34.141Z,2.37
2023-01-19T18:29:30.093Z,2.42
2023-01-19T18:30:15.213Z,2.42
2023-01-19T18:32:35.617Z,2.63
2023-01-19T18:34:29.851Z,2.63
2023-01-19T18:34:35.332Z,2.63
2023-01-19T18:36:59.726Z,2.63
2023-01-19T18:39:30.245Z,2.59
2023-01-19T18:40:59.685Z,2.59
2023-01-19T18:44:30.079Z,2.63
2023-01-19T18:49:29.934Z,2.57
2023-01-19T18:54:30.213Z,2.59
2023-01-19T18:59:29.965Z,2.62
2023-01-19T18:59:37.046Z,2.62
2023-01-19T19:04:29.958Z,2.65
2023-01-19T19:08:56.035Z,2.63
2023-01-19T19:09:29.832Z,2.63
2023-01-19T19:13:25.403Z,2.56
2023-01-19T19:14:29.809Z,2.56
2023-01-19T19:17:27.430Z,2.63
2023-01-19T19:19:30.099Z,2.63
2023-01-19T19:24:30.034Z,2.58
2023-01-19T19:29:30.664Z,2.54
2023-01-19T19:30:45.525Z,2.54
2023-01-19T19:34:29.816Z,2.48
2023-01-19T19:39:29.923Z,2.42
2023-01-19T19:44:30.009Z,2.41
2023-01-19T19:49:29.837Z,2.33
2023-01-19T19:54:29.928Z,2.33
2023-01-19T19:59:30.048Z,2.32
2023-01-19T20:04:29.784Z,2.33
2023-01-19T20:09:29.948Z,2.33
2023-01-19T20:14:30.136Z,2.26
2023-01-19T20:18:31.666Z,2.21
2023-01-19T20:19:32.453Z,2.21
2023-01-19T20:21:49.497Z,2.21
2023-01-19T20:24:29.755Z,2.19
2023-01-19T20:29:30.066Z,2.15
2023-01-19T20:34:33.379Z,2.13
2023-01-19T20:39:32.290Z,2.14
2023-01-19T20:44:30.373Z,2.13
2023-01-19T20:49:29.844Z,2.19
2023-01-19T20:54:29.865Z,2.09
2023-01-19T20:59:30.021Z,2.04
2023-01-19T21:04:29.784Z,2.16
2023-01-19T21:05:57.427Z,2.16
2023-01-19T21:09:29.972Z,2.04
2023-01-19T21:09:34.328Z,2.04
2023-01-19T21:14:30.369Z,1.98
2023-01-19T21:19:29.793Z,1.92
2023-01-19T21:24:29.854Z,1.92
2023-01-19T21:29:30.306Z,1.92
2023-01-19T21:34:29.797Z,1.79
2023-01-19T21:34:44.718Z,1.79
2023-01-19T21:37:48.400Z,1.71
2023-01-19T21:39:29.720Z,1.71
2023-01-19T21:42:33.613Z,1.76
2023-01-19T21:43:59.145Z,1.76
2023-01-19T21:44:29.684Z,1.76
2023-01-19T21:47:34.607Z,1.84
2023-01-19T21:49:30.118Z,1.84
2023-01-19T21:50:39.539Z,1.84
2023-01-19T21:51:54.811Z,1.84
2023-01-19T21:53:45.806Z,1.87
2023-01-19T21:54:29.663Z,1.87
2023-01-19T21:59:29.836Z,1.88
2023-01-19T22:03:04.630Z,1.85
2023-01-19T22:04:30.010Z,1.85
2023-01-19T22:09:32.095Z,1.87
2023-01-19T22:14:29.713Z,1.81
2023-01-19T22:15:21.889Z,1.81
2023-01-19T22:19:22.296Z,1.80
2023-01-19T22:19:29.793Z,1.80
2023-01-19T22:24:29.962Z,1.89
2023-01-19T22:29:29.947Z,1.90
2023-01-19T22:32:40.159Z,1.94
2023-01-19T22:34:29.754Z,1.94
2023-01-19T22:39:29.754Z,1.84
2023-01-19T22:39:38.276Z,1.84
2023-01-19T22:44:29.855Z,1.88
2023-01-19T22:44:32.765Z,1.88
2023-01-19T22:49:29.698Z,1.84
2023-01-19T22:52:45.215Z,1.91
2023-01-19T22:54:09.339Z,1.91
2023-01-19T22:54:29.836Z,1.91
2023-01-19T22:57:35.586Z,1.93
2023-01-19T22:59:29.726Z,1.93
2023-01-19T23:00:35.191Z,1.93
2023-01-19T23:04:29.952Z,1.79
2023-01-19T23:08:03.490Z,1.81
2023-01-19T23:09:29.650Z,1.81
2023-01-19T23:09:55.124Z,1.81
2023-01-19T23:14:29.743Z,1.89
2023-01-19T23:19:29.974Z,1.91
2023-01-19T23:24:17.263Z,1.89
2023-01-19T23:24:29.722Z,1.89
2023-01-19T23:26:56.117Z,1.89
2023-01-19T23:29:29.811Z,1.95
2023-01-19T23:34:29.913Z,1.92
2023-01-19T23:39:29.827Z,1.81
2023-01-19T23:41:35.242Z,1.81
2023-01-19T23:44:29.908Z,1.75
2023-01-19T23:49:29.929Z,1.76
2023-01-19T23:50:42.215Z,1.76
2023-01-19T23:54:29.714Z,1.80
2023-01-19T23:58:02.411Z,1.83
2023-01-19T23:59:29.629Z,1.83
